createdAt,value
2023-02-28T07:34:42.186Z,74.85
2023-02-28T07:37:08.850Z,74.74
2023-02-28T07:39:35.533Z,74.72
2023-02-28T07:42:06.076Z,74.90
2023-02-28T07:44:32.878Z,74.82
2023-02-28T07:46:59.542Z,74.61
2023-02-28T07:49:26.230Z,74.68
2023-02-28T07:51:52.894Z,74.49
2023-02-28T07:54:19.523Z,74.33
2023-02-28T07:56:46.194Z,74.37
2023-02-28T07:59:13.181Z,74.23
2023-02-28T08:01:39.873Z,74.24
2023-02-28T08:04:06.519Z,74.01
2023-02-28T08:06:33.182Z,73.60
2023-02-28T08:08:59.841Z,73.51
2023-02-28T08:11:26.556Z,73.65
2023-02-28T08:13:53.640Z,73.47
2023-02-28T08:16:23.357Z,73.38
2023-02-28T08:18:52.221Z,72.92
2023-02-28T08:21:20.336Z,72.85
2023-02-28T08:23:51.429Z,73.04
2023-02-28T08:26:19.482Z,72.53
2023-02-28T08:28:47.254Z,72.31
2023-02-28T08:31:16.277Z,72.61
2023-02-28T08:33:45.586Z,71.72
2023-02-28T08:36:13.074Z,72.10
2023-02-28T08:38:39.870Z,72.07
2023-02-28T08:41:10.006Z,71.95
2023-02-28T08:43:37.628Z,71.91
2023-02-28T08:46:05.136Z,72.05
2023-02-28T08:48:34.535Z,71.45
2023-02-28T08:51:08.854Z,71.26
2023-02-28T08:53:39.527Z,71.13
2023-02-28T08:56:08.425Z,71.01
2023-02-28T08:58:36.426Z,70.75
2023-02-28T09:01:09.682Z,70.86
2023-02-28T09:03:36.519Z,71.26
2023-02-28T09:06:03.842Z,71.14
2023-02-28T09:08:31.558Z,70.82
2023-02-28T09:11:00.181Z,70.43
2023-02-28T09:13:27.918Z,70.57
2023-02-28T09:15:55.794Z,70.02
2023-02-28T09:18:22.660Z,69.92
2023-02-28T09:20:49.333Z,69.58
2023-02-28T09:23:15.998Z,69.82
2023-02-28T09:25:51.361Z,69.66
2023-02-28T09:28:18.611Z,69.20
2023-02-28T09:30:47.948Z,69.09
2023-02-28T09:33:15.391Z,69.09
2023-02-28T09:35:43.927Z,69.07
2023-02-28T09:38:11.496Z,68.71
2023-02-28T09:40:47.261Z,68.52
2023-02-28T09:43:16.378Z,68.33
2023-02-28T09:45:49.648Z,67.79
2023-02-28T09:48:22.412Z,68.04
2023-02-28T09:51:05.111Z,68.31
2023-02-28T09:53:35.231Z,68.17
2023-02-28T09:56:08.474Z,68.04
2023-02-28T09:58:41.744Z,67.63
2023-02-28T10:01:43.168Z,67.41
2023-02-28T10:04:34.575Z,66.49
2023-02-28T10:07:20.352Z,66.55
2023-02-28T10:09:52.732Z,66.73
2023-02-28T10:12:21.262Z,67.04
2023-02-28T10:14:50.262Z,66.49
2023-02-28T10:17:32.581Z,66.21
2023-02-28T10:20:12.674Z,66.03
2023-02-28T10:22:54.381Z,66.32
2023-02-28T10:25:24.448Z,66.22
2023-02-28T10:27:55.177Z,66.41
2023-02-28T10:30:21.858Z,66.05
2023-02-28T10:32:54.700Z,66.28
2023-02-28T10:35:22.878Z,66.28
2023-02-28T10:37:52.560Z,65.72
2023-02-28T10:40:19.164Z,65.89
2023-02-28T10:43:15.076Z,65.98
2023-02-28T10:45:54.117Z,65.88
2023-02-28T10:48:20.724Z,66.32
2023-02-28T10:50:53.244Z,65.62
2023-02-28T10:53:26.015Z,65.72
2023-02-28T10:56:18.478Z,65.75
2023-02-28T10:59:03.493Z,65.74
2023-02-28T11:01:33.416Z,65.16
2023-02-28T11:04:00.678Z,65.31
2023-02-28T11:06:33.378Z,65.07
2023-02-28T11:09:15.238Z,65.01
2023-02-28T11:11:48.152Z,64.45
2023-02-28T11:14:26.929Z,64.93
2023-02-28T11:16:54.913Z,64.65
2023-02-28T11:19:31.604Z,63.89
2023-02-28T11:22:01.301Z,64.08
2023-02-28T11:24:44.943Z,63.92
2023-02-28T11:27:46.135Z,63.91
2023-02-28T11:30:29.995Z,63.96
2023-02-28T11:32:57.030Z,64.00
2023-02-28T11:35:35.794Z,63.34
2023-02-28T11:38:03.808Z,63.56
2023-02-28T11:41:03.547Z,62.97
2023-02-28T11:43:51.343Z,63.35
2023-02-28T11:46:25.683Z,63.08
2023-02-28T11:49:04.407Z,62.84
2023-02-28T11:51:34.358Z,63.01
2023-02-28T11:54:22.177Z,62.60
2023-02-28T11:56:55.924Z,62.56
2023-02-28T11:59:42.683Z,62.58
2023-02-28T12:02:21.602Z,62.56
2023-02-28T12:05:07.857Z,62.35
2023-02-28T12:07:52.473Z,63.10
2023-02-28T12:10:23.869Z,62.75
2023-02-28T12:13:10.536Z,62.55
2023-02-28T12:16:17.817Z,62.82
2023-02-28T12:19:02.719Z,62.30
2023-02-28T12:21:38.324Z,62.03
2023-02-28T12:24:05.003Z,62.30
2023-02-28T12:26:41.116Z,62.44
2023-02-28T12:29:18.353Z,62.27
2023-02-28T12:31:57.674Z,62.04
2023-02-28T12:34:32.692Z,61.95
2023-02-28T12:37:05.773Z,62.21
2023-02-28T12:39:49.842Z,61.89
2023-02-28T12:42:26.462Z,62.09
2023-02-28T12:45:11.318Z,61.61
2023-02-28T12:47:41.541Z,61.93
2023-02-28T12:50:12.585Z,61.78
2023-02-28T12:53:01.819Z,61.75
2023-02-28T12:55:35.081Z,61.39
2023-02-28T12:58:12.346Z,61.26
2023-02-28T13:00:50.162Z,61.35
2023-02-28T13:03:43.547Z,61.47
2023-02-28T13:06:39.758Z,61.70
2023-02-28T13:09:15.801Z,61.74
2023-02-28T13:11:52.816Z,61.20
2023-02-28T13:14:31.462Z,61.06
2023-02-28T13:17:00.429Z,60.92
2023-02-28T13:19:30.208Z,60.50
2023-02-28T13:21:59.873Z,60.35
2023-02-28T13:24:35.433Z,60.29
2023-02-28T13:27:02.126Z,60.02
2023-02-28T13:29:34.619Z,59.61
2023-02-28T13:32:07.281Z,59.81
2023-02-28T13:34:36.046Z,59.43
2023-02-28T13:37:24.204Z,59.69
2023-02-28T13:40:27.421Z,59.96
2023-02-28T13:42:54.159Z,60.10
2023-02-28T13:45:31.358Z,59.48
2023-02-28T13:48:05.340Z,59.62
2023-02-28T13:50:36.135Z,59.25
2023-02-28T13:53:14.787Z,59.38
2023-02-28T13:55:55.038Z,59.51
2023-02-28T13:58:40.485Z,59.55
2023-02-28T14:01:22.388Z,59.86
2023-02-28T14:03:54.938Z,59.88
2023-02-28T14:06:21.510Z,59.94
2023-02-28T14:09:25.010Z,59.49
2023-02-28T14:11:52.392Z,59.72
2023-02-28T14:14:37.178Z,60.09
2023-02-28T14:17:10.651Z,60.16
2023-02-28T14:19:39.491Z,60.13
2023-02-28T14:22:47.886Z,60.18
2023-02-28T14:25:29.108Z,60.03
2023-02-28T14:28:16.633Z,60.00
2023-02-28T14:31:09.503Z,60.18
2023-02-28T14:34:00.872Z,60.12
2023-02-28T14:36:32.967Z,60.06
2023-02-28T14:39:05.702Z,60.27
2023-02-28T14:41:39.699Z,60.23
2023-02-28T14:44:18.665Z,60.38
2023-02-28T14:46:47.216Z,60.27
2023-02-28T14:49:19.307Z,60.19
2023-02-28T14:51:48.312Z,59.99
2023-02-28T14:54:17.723Z,60.19
2023-02-28T14:56:44.441Z,60.00
2023-02-28T14:59:40.613Z,59.96
2023-02-28T15:02:24.343Z,60.06
2023-02-28T15:04:59.874Z,60.09
2023-02-28T15:07:30.764Z,60.45
2023-02-28T15:10:20.971Z,60.27
2023-02-28T15:13:07.237Z,60.10
2023-02-28T15:16:06.084Z,60.54
2023-02-28T15:18:47.988Z,60.45
2023-02-28T15:21:19.490Z,60.66
2023-02-28T15:23:50.942Z,60.28
2023-02-28T15:26:22.682Z,60.72
2023-02-28T15:28:55.008Z,60.37
2023-02-28T15:31:34.055Z,60.10
2023-02-28T15:34:06.377Z,60.63
2023-02-28T15:36:38.257Z,60.58
2023-02-28T15:39:21.320Z,60.79
2023-02-28T15:41:47.996Z,60.59
2023-02-28T15:44:26.935Z,60.63
2023-02-28T15:47:03.835Z,60.44
2023-02-28T15:49:45.011Z,60.83
2023-02-28T15:52:17.022Z,60.81
2023-02-28T15:54:45.258Z,61.01
2023-02-28T15:57:26.562Z,61.36
2023-02-28T16:00:01.475Z,61.33
2023-02-28T16:02:38.886Z,60.69
2023-02-28T16:05:11.493Z,61.23
2023-02-28T16:07:44.117Z,61.26
2023-02-28T16:10:15.168Z,61.34
2023-02-28T16:12:43.034Z,61.36
2023-02-28T16:15:19.938Z,61.41
2023-02-28T16:17:47.704Z,61.63
2023-02-28T16:20:28.670Z,61.51
2023-02-28T16:22:55.617Z,62.19
2023-02-28T16:25:29.525Z,61.77
2023-02-28T16:27:58.588Z,61.85
2023-02-28T16:30:29.023Z,62.36
2023-02-28T16:32:56.777Z,61.73
2023-02-28T16:35:24.418Z,62.06
2023-02-28T16:37:54.839Z,62.09
2023-02-28T16:40:26.356Z,62.79
2023-02-28T16:42:56.826Z,62.73
2023-02-28T16:45:26.139Z,62.49
2023-02-28T16:47:53.837Z,62.65
2023-02-28T16:50:22.377Z,62.31
2023-02-28T16:52:50.545Z,62.10
2023-02-28T16:55:17.382Z,62.53
2023-02-28T16:57:44.872Z,62.80
2023-02-28T17:00:14.635Z,62.53
2023-02-28T17:02:42.950Z,62.43
2023-02-28T17:05:12.339Z,63.02
2023-02-28T17:07:39.904Z,62.41
2023-02-28T17:10:19.734Z,62.61
2023-02-28T17:12:46.483Z,63.24
2023-02-28T17:15:15.955Z,62.90
2023-02-28T17:17:43.851Z,63.07
2023-02-28T17:20:27.522Z,63.05
2023-02-28T17:22:55.690Z,62.80
2023-02-28T17:25:23.703Z,63.17
2023-02-28T17:27:52.449Z,63.52
2023-02-28T17:30:25.748Z,63.29
2023-02-28T17:32:52.500Z,63.05
2023-02-28T17:35:19.239Z,63.63
2023-02-28T17:37:46.355Z,63.78
2023-02-28T17:40:20.879Z,63.23
2023-02-28T17:42:47.818Z,63.45
2023-02-28T17:45:15.863Z,64.01
2023-02-28T17:47:44.921Z,63.60
2023-02-28T17:50:17.242Z,63.42
2023-02-28T17:52:43.943Z,63.50
2023-02-28T17:55:11.934Z,63.46
2023-02-28T17:57:38.889Z,63.37
2023-02-28T18:00:09.238Z,64.07
2023-02-28T18:02:35.974Z,64.01
2023-02-28T18:05:05.329Z,63.95
2023-02-28T18:07:32.174Z,63.94
2023-02-28T18:09:58.822Z,63.97
2023-02-28T18:12:25.494Z,63.96
2023-02-28T18:14:52.150Z,63.73
2023-02-28T18:17:18.781Z,63.90
2023-02-28T18:19:45.448Z,63.98
2023-02-28T18:22:12.189Z,64.20
2023-02-28T18:24:38.841Z,63.76
2023-02-28T18:27:06.667Z,64.10
2023-02-28T18:29:33.730Z,64.33
2023-02-28T18:32:02.415Z,64.30
2023-02-28T18:34:30.724Z,63.88
2023-02-28T18:36:57.785Z,64.35
2023-02-28T18:39:24.604Z,63.86
2023-02-28T18:41:52.119Z,64.07
2023-02-28T18:44:20.688Z,64.42
2023-02-28T18:46:51.678Z,64.52
2023-02-28T18:49:18.662Z,64.62
2023-02-28T18:51:46.679Z,64.20
2023-02-28T18:54:15.037Z,64.29
2023-02-28T18:56:42.493Z,64.43
2023-02-28T18:59:09.289Z,64.79
2023-02-28T19:01:36.491Z,64.40
2023-02-28T19:04:04.700Z,64.80
2023-02-28T19:06:32.431Z,64.80
2023-02-28T19:09:02.364Z,64.77
2023-02-28T19:11:29.281Z,64.83
2023-02-28T19:13:56.529Z,64.69
2023-02-28T19:16:23.445Z,64.84
2023-02-28T19:18:50.558Z,64.78
2023-02-28T19:21:19.516Z,64.79
2023-02-28T19:23:46.219Z,64.79
2023-02-28T19:26:19.066Z,64.71
2023-02-28T19:28:46.240Z,64.77
2023-02-28T19:31:19.451Z,64.93
2023-02-28T19:33:46.208Z,65.40
2023-02-28T19:36:13.956Z,64.97
2023-02-28T19:38:40.922Z,65.16
2023-02-28T19:41:10.187Z,65.49
2023-02-28T19:43:37.145Z,65.42
2023-02-28T19:46:04.144Z,65.25
2023-02-28T19:48:30.931Z,64.91
2023-02-28T19:51:02.646Z,65.40
2023-02-28T19:53:31.362Z,65.29
2023-02-28T19:56:00.540Z,65.40
2023-02-28T19:58:28.104Z,65.40
2023-02-28T20:00:54.891Z,65.30
2023-02-28T20:03:21.884Z,65.42
2023-02-28T20:06:02.525Z,65.17
2023-02-28T20:08:29.849Z,65.00
2023-02-28T20:11:02.496Z,65.42
2023-02-28T20:13:29.226Z,65.63
2023-02-28T20:15:59.423Z,65.64
2023-02-28T20:18:26.074Z,65.39
2023-02-28T20:20:52.842Z,65.69
2023-02-28T20:23:19.474Z,65.82
2023-02-28T20:25:46.112Z,65.45
2023-02-28T20:28:12.745Z,65.85
2023-02-28T20:30:41.922Z,65.68
2023-02-28T20:33:08.679Z,65.95
2023-02-28T20:35:35.475Z,65.92
2023-02-28T20:38:02.182Z,66.09
2023-02-28T20:40:28.830Z,65.83
2023-02-28T20:42:55.510Z,65.52
2023-02-28T20:45:22.148Z,65.55
2023-02-28T20:47:48.825Z,65.79
2023-02-28T20:50:17.175Z,65.85
2023-02-28T20:52:44.606Z,65.98
2023-02-28T20:55:15.216Z,65.81
2023-02-28T20:57:41.853Z,65.93
2023-02-28T21:00:15.773Z,66.01
2023-02-28T21:02:42.569Z,65.82
2023-02-28T21:05:09.806Z,65.85
2023-02-28T21:07:36.691Z,65.99
2023-02-28T21:10:03.753Z,65.49
2023-02-28T21:12:30.467Z,65.66
2023-02-28T21:14:57.124Z,65.81
2023-02-28T21:17:23.861Z,65.86
2023-02-28T21:19:50.515Z,66.01
2023-02-28T21:22:17.200Z,66.00
2023-02-28T21:24:44.077Z,66.26
2023-02-28T21:27:10.708Z,66.02
2023-02-28T21:29:37.395Z,66.15
2023-02-28T21:32:04.177Z,65.92
2023-02-28T21:34:30.863Z,65.85
2023-02-28T21:36:57.555Z,66.00
2023-02-28T21:39:29.581Z,66.23
2023-02-28T21:42:03.558Z,66.13
2023-02-28T21:44:31.582Z,65.82
2023-02-28T21:47:01.061Z,66.21
2023-02-28T21:49:28.549Z,65.98
2023-02-28T21:51:55.226Z,66.03
2023-02-28T21:54:21.884Z,66.10
2023-02-28T21:56:50.743Z,66.02
2023-02-28T21:59:18.132Z,66.21
2023-02-28T22:01:45.487Z,66.16
2023-02-28T22:04:21.415Z,66.20
2023-02-28T22:06:53.863Z,66.26
2023-02-28T22:09:21.536Z,66.07
2023-02-28T22:11:48.273Z,66.26
2023-02-28T22:14:15.318Z,66.19
2023-02-28T22:16:57.536Z,66.38
2023-02-28T22:19:24.560Z,66.16
2023-02-28T22:21:53.825Z,66.08
2023-02-28T22:24:24.307Z,66.16
2023-02-28T22:26:51.972Z,65.79
2023-02-28T22:29:18.971Z,65.87
2023-02-28T22:31:45.855Z,65.96
2023-02-28T22:34:13.078Z,65.85
2023-02-28T22:36:43.492Z,65.89
2023-02-28T22:39:10.915Z,65.93
2023-02-28T22:41:38.363Z,66.01
2023-02-28T22:44:05.996Z,65.73
2023-02-28T22:46:34.922Z,65.61
2023-02-28T22:49:03.739Z,65.96
2023-02-28T22:51:31.165Z,65.72
2023-02-28T22:53:58.517Z,65.47
2023-02-28T22:56:29.106Z,65.76
2023-02-28T22:58:58.152Z,65.43
2023-02-28T23:01:27.293Z,65.45
2023-02-28T23:03:54.482Z,65.69
2023-02-28T23:06:24.610Z,65.80
2023-02-28T23:08:53.448Z,65.61
2023-02-28T23:11:24.834Z,65.75
2023-02-28T23:14:01.218Z,65.61
2023-02-28T23:16:49.048Z,65.57
2023-02-28T23:19:19.905Z,65.59
2023-02-28T23:21:47.127Z,65.48
2023-02-28T23:24:16.665Z,65.50
2023-02-28T23:26:46.550Z,65.44
2023-02-28T23:29:15.540Z,65.68
2023-02-28T23:31:42.461Z,65.57
2023-02-28T23:34:09.840Z,65.66
2023-02-28T23:36:38.305Z,65.54
2023-02-28T23:39:06.246Z,65.83
2023-02-28T23:41:32.957Z,65.48
2023-02-28T23:43:59.598Z,65.75
2023-02-28T23:46:27.159Z,65.67
2023-02-28T23:48:53.800Z,65.57
2023-02-28T23:51:21.990Z,65.54
2023-02-28T23:53:51.050Z,65.27
2023-02-28T23:56:20.805Z,65.33
2023-02-28T23:58:48.061Z,65.49
